Time;durP1;ratioP1;P1;durP2;ratioP2;P2;SDS_P1;SDS_P2;PMS_P1;PMS_P2;Temp;Humidity;BMP_temperature;BMP_pressure;BME280_temperature;BME280_humidity;BME280_pressure;Samples;Min_cycle;Max_cycle;Signal;HPM_P1;HPM_P2
2023/12/04 00:01:49;;;;;;;38.83;20.35;;;1.10;99.90;;;;;;5070269;28;20037;-74
2023/12/04 00:04:14;;;;;;;30.02;16.73;;;1.10;99.90;;;;;;5065297;28;20500;-74
2023/12/04 00:06:43;;;;;;;35.72;17.95;;;1.10;99.90;;;;;;5051574;28;20498;-74
2023/12/04 00:09:09;;;;;;;34.05;18.45;;;1.10;99.90;;;;;;5051651;28;20052;-74
2023/12/04 00:11:34;;;;;;;39.15;19.08;;;1.10;99.90;;;;;;5064022;28;20487;-74
2023/12/04 00:14:00;;;;;;;39.58;19.98;;;1.30;99.90;;;;;;5070417;28;20040;-74
2023/12/04 00:16:26;;;;;;;35.17;18.90;;;1.10;99.90;;;;;;5071419;28;20044;-74
2023/12/04 00:18:52;;;;;;;35.63;18.60;;;1.10;99.90;;;;;;5070796;28;20400;-73
2023/12/04 00:21:17;;;;;;;33.50;17.58;;;1.10;99.90;;;;;;5070647;28;20067;-73
2023/12/04 00:23:43;;;;;;;36.20;19.55;;;1.70;99.90;;;;;;5069046;28;20048;-73
2023/12/04 00:26:09;;;;;;;34.92;18.20;;;1.10;99.90;;;;;;5065844;28;20048;-74
2023/12/04 00:28:37;;;;;;;35.15;18.00;;;1.10;99.90;;;;;;5070517;28;20109;-75
2023/12/04 00:31:03;;;;;;;30.90;17.40;;;1.10;99.90;;;;;;5066130;28;20048;-73
2023/12/04 00:33:29;;;;;;;36.10;19.02;;;1.10;99.90;;;;;;5068366;28;20045;-74
2023/12/04 00:35:54;;;;;;;32.85;17.88;;;1.10;99.90;;;;;;5056777;28;20059;-74
2023/12/04 00:38:20;;;;;;;39.17;19.52;;;1.00;99.90;;;;;;5051103;28;20041;-73
2023/12/04 00:40:46;;;;;;;35.88;19.00;;;1.80;99.90;;;;;;5050677;28;20048;-74
2023/12/04 00:43:11;;;;;;;36.13;18.73;;;1.10;99.90;;;;;;5058285;28;20049;-73
2023/12/04 00:45:37;;;;;;;35.47;19.13;;;1.10;99.90;;;;;;5068540;28;20048;-73
2023/12/04 00:48:03;;;;;;;34.90;18.45;;;1.00;99.90;;;;;;5070735;28;20052;-73
2023/12/04 00:50:28;;;;;;;35.95;18.17;;;1.00;99.90;;;;;;5064820;28;20098;-73
2023/12/04 00:52:54;;;;;;;37.97;17.70;;;1.00;99.90;;;;;;5050657;28;20040;-73
2023/12/04 00:55:20;;;;;;;32.03;17.25;;;1.00;99.90;;;;;;5067443;28;20056;-74
2023/12/04 00:57:46;;;;;;;31.63;17.30;;;1.00;99.90;;;;;;5070698;28;20063;-73
2023/12/04 01:00:12;;;;;;;34.38;17.98;;;1.00;99.90;;;;;;5070520;28;20044;-74
2023/12/04 01:02:38;;;;;;;32.55;17.05;;;1.00;99.90;;;;;;5064506;28;20443;-73
2023/12/04 01:05:04;;;;;;;33.45;17.55;;;1.00;99.90;;;;;;5062015;28;20052;-73
2023/12/04 01:07:29;;;;;;;34.75;17.55;;;1.00;99.90;;;;;;5070174;28;20085;-74
2023/12/04 01:09:55;;;;;;;34.20;18.75;;;1.00;99.90;;;;;;5070491;28;20041;-74
2023/12/04 01:12:21;;;;;;;33.55;17.23;;;1.10;99.90;;;;;;5067151;28;20388;-73
2023/12/04 01:14:46;;;;;;;31.52;16.42;;;1.10;99.90;;;;;;5069105;28;20059;-74
2023/12/04 01:17:12;;;;;;;31.67;15.50;;;1.00;99.90;;;;;;5070107;28;20060;-73
2023/12/04 01:19:38;;;;;;;31.52;17.05;;;1.00;99.90;;;;;;5070368;28;20045;-73
2023/12/04 01:22:05;;;;;;;31.25;16.63;;;1.60;99.90;;;;;;5059126;28;20446;-73
2023/12/04 01:24:30;;;;;;;30.48;16.73;;;1.20;99.90;;;;;;5064540;28;20040;-73
2023/12/04 01:26:56;;;;;;;29.63;15.73;;;1.00;99.90;;;;;;5070311;28;20106;-74
2023/12/04 01:29:22;;;;;;;28.95;15.30;;;1.00;99.90;;;;;;5069990;28;20043;-73
2023/12/04 01:31:47;;;;;;;32.05;17.15;;;1.00;99.90;;;;;;5070066;28;20044;-73
2023/12/04 01:34:13;;;;;;;32.78;18.17;;;1.00;99.90;;;;;;5062626;28;20047;-73
2023/12/04 01:36:41;;;;;;;35.45;17.88;;;1.00;99.90;;;;;;5050264;28;20100;-74
2023/12/04 01:39:07;;;;;;;36.50;17.85;;;1.20;99.90;;;;;;5050160;28;20041;-73
2023/12/04 01:41:33;;;;;;;31.80;16.83;;;1.00;99.90;;;;;;5062891;28;20079;-73
2023/12/04 01:43:59;;;;;;;33.03;17.27;;;1.00;99.90;;;;;;5064498;28;20056;-73
2023/12/04 01:46:25;;;;;;;31.02;16.42;;;1.00;99.90;;;;;;5070152;28;20044;-73
2023/12/04 01:48:51;;;;;;;32.42;16.70;;;1.00;99.90;;;;;;5074351;28;20040;-73
2023/12/04 01:51:18;;;;;;;36.50;18.02;;;1.00;99.90;;;;;;5060493;28;20048;-73
2023/12/04 01:53:44;;;;;;;34.72;17.23;;;1.00;99.90;;;;;;5054389;28;20049;-73
2023/12/04 01:56:10;;;;;;;32.85;15.77;;;1.00;99.90;;;;;;5069578;28;20371;-73
2023/12/04 01:58:37;;;;;;;34.03;17.50;;;1.00;99.90;;;;;;5061066;28;20053;-73
2023/12/04 02:01:04;;;;;;;34.03;17.52;;;1.00;99.90;;;;;;5053902;28;20045;-73
2023/12/04 02:03:30;;;;;;;31.67;16.52;;;1.10;99.90;;;;;;5061906;28;20093;-73
2023/12/04 02:05:59;;;;;;;32.95;16.33;;;1.10;99.90;;;;;;5057313;28;20045;-73
2023/12/04 02:08:26;;;;;;;31.85;17.23;;;1.10;99.90;;;;;;5053751;28;20049;-73
2023/12/04 02:10:51;;;;;;;30.60;16.45;;;1.00;99.90;;;;;;5053573;28;20497;-73
2023/12/04 02:13:17;;;;;;;33.10;17.65;;;1.70;99.90;;;;;;5053625;28;20044;-73
2023/12/04 02:15:45;;;;;;;33.55;16.90;;;1.10;99.90;;;;;;5069142;28;20419;-73
2023/12/04 02:18:11;;;;;;;30.02;15.88;;;1.40;99.90;;;;;;5064049;28;20057;-73
2023/12/04 02:20:37;;;;;;;32.20;15.68;;;1.10;99.90;;;;;;5064439;28;20041;-73
2023/12/04 02:23:03;;;;;;;28.80;16.67;;;1.00;99.90;;;;;;5069610;28;20424;-73
2023/12/04 02:25:29;;;;;;;29.83;15.98;;;1.10;99.90;;;;;;5068013;28;20115;-73
2023/12/04 02:27:58;;;;;;;34.03;17.15;;;1.00;99.90;;;;;;5070700;28;20044;-74
2023/12/04 02:30:24;;;;;;;30.65;15.50;;;1.00;99.90;;;;;;5073193;28;20044;-73
2023/12/04 02:32:51;;;;;;;32.08;16.95;;;1.00;99.90;;;;;;5068428;28;20048;-73
2023/12/04 02:35:22;;;;;;;28.98;15.30;;;1.00;99.90;;;;;;5062095;28;20048;-73
2023/12/04 02:37:49;;;;;;;33.47;16.23;;;1.00;99.90;;;;;;5071493;28;20506;-73
2023/12/04 02:40:15;;;;;;;27.02;15.23;;;1.00;99.90;;;;;;5072085;28;20426;-73
2023/12/04 02:42:41;;;;;;;26.90;14.98;;;1.00;99.90;;;;;;5070968;28;20373;-73
2023/12/04 02:45:07;;;;;;;28.15;14.75;;;1.10;99.90;;;;;;5056462;28;20049;-73
2023/12/04 02:47:32;;;;;;;30.02;15.10;;;1.00;99.90;;;;;;5064393;28;20454;-73
2023/12/04 02:49:58;;;;;;;33.25;17.00;;;1.10;99.90;;;;;;5063188;28;20048;-72
2023/12/04 02:52:24;;;;;;;30.35;15.65;;;1.10;99.90;;;;;;5053269;28;20127;-73
2023/12/04 02:54:50;;;;;;;32.00;16.58;;;1.10;99.90;;;;;;5061700;28;20048;-73
2023/12/04 02:57:15;;;;;;;31.70;16.08;;;1.10;99.90;;;;;;5071448;28;20762;-72
2023/12/04 02:59:41;;;;;;;31.45;16.50;;;2.10;99.90;;;;;;5070721;28;20033;-73
2023/12/04 03:02:06;;;;;;;29.65;16.15;;;1.10;99.90;;;;;;5072015;28;20072;-73
2023/12/04 03:04:33;;;;;;;31.92;16.02;;;1.10;99.90;;;;;;5054060;28;20488;-73
2023/12/04 03:06:58;;;;;;;30.17;15.18;;;1.10;99.90;;;;;;5052748;28;20548;-73
2023/12/04 03:09:24;;;;;;;29.10;15.57;;;1.10;99.90;;;;;;5052998;28;20139;-73
2023/12/04 03:11:49;;;;;;;32.08;16.05;;;1.10;99.90;;;;;;5052409;28;20045;-73
2023/12/04 03:14:15;;;;;;;28.00;15.00;;;0.10;99.90;;;;;;5069858;28;20037;-73
2023/12/04 03:16:41;;;;;;;30.58;16.10;;;1.10;99.90;;;;;;5071809;28;20537;-72
2023/12/04 03:19:06;;;;;;;35.50;16.42;;;1.60;99.90;;;;;;5072304;28;20082;-72
2023/12/04 03:21:32;;;;;;;30.13;15.07;;;1.10;99.90;;;;;;5072296;28;20063;-72
2023/12/04 03:23:58;;;;;;;31.35;15.10;;;1.10;99.90;;;;;;5061222;28;20120;-73
2023/12/04 03:26:23;;;;;;;29.83;15.60;;;1.10;99.90;;;;;;5072456;28;20094;-72
2023/12/04 03:28:49;;;;;;;29.50;14.70;;;1.10;99.90;;;;;;5072215;28;20549;-72
2023/12/04 03:31:14;;;;;;;29.88;15.55;;;1.10;99.90;;;;;;5070822;28;20552;-73
2023/12/04 03:33:40;;;;;;;30.70;15.10;;;1.10;99.90;;;;;;5068362;28;20040;-72
2023/12/04 03:36:06;;;;;;;28.75;14.80;;;1.10;99.90;;;;;;5072294;28;20060;-73
2023/12/04 03:38:32;;;;;;;27.13;14.63;;;1.10;99.90;;;;;;5072148;28;20272;-72
2023/12/04 03:40:57;;;;;;;31.38;16.02;;;1.10;99.90;;;;;;5070567;28;20488;-72
2023/12/04 03:43:23;;;;;;;31.00;16.88;;;1.10;99.90;;;;;;5066572;28;20040;-73
2023/12/04 03:45:49;;;;;;;25.35;13.98;;;1.10;99.90;;;;;;5049524;28;20049;-72
2023/12/04 03:48:14;;;;;;;29.70;15.90;;;1.10;99.90;;;;;;5050457;28;20109;-73
2023/12/04 03:50:40;;;;;;;28.02;14.10;;;1.10;99.90;;;;;;5050461;28;20336;-72
2023/12/04 03:53:06;;;;;;;27.13;13.77;;;1.10;99.90;;;;;;5049234;28;20049;-73
2023/12/04 03:55:31;;;;;;;30.67;15.05;;;1.20;99.90;;;;;;5059198;28;20121;-73
2023/12/04 03:57:57;;;;;;;30.92;15.70;;;1.20;99.90;;;;;;5069968;28;20049;-72
2023/12/04 04:00:23;;;;;;;26.85;14.43;;;1.20;99.90;;;;;;5070098;28;20047;-72
2023/12/04 04:02:49;;;;;;;33.42;16.13;;;1.20;99.90;;;;;;5064820;28;20459;-73
2023/12/04 04:05:15;;;;;;;29.90;14.85;;;1.20;99.90;;;;;;5056366;28;20045;-73
2023/12/04 04:07:41;;;;;;;28.58;15.30;;;1.20;99.90;;;;;;5051654;28;20045;-72
2023/12/04 04:10:08;;;;;;;27.77;15.57;;;1.20;99.90;;;;;;5051465;28;20056;-72
2023/12/04 04:12:33;;;;;;;27.90;14.80;;;1.20;99.90;;;;;;5051322;28;20049;-72
2023/12/04 04:14:59;;;;;;;27.55;14.88;;;1.20;99.90;;;;;;5050478;28;20411;-72
2023/12/04 04:17:29;;;;;;;32.10;16.92;;;1.20;99.90;;;;;;5051602;28;20527;-72
2023/12/04 04:19:55;;;;;;;30.23;15.23;;;1.20;99.90;;;;;;5069572;28;20525;-73
2023/12/04 04:22:21;;;;;;;29.77;15.23;;;1.10;99.90;;;;;;5068271;28;20050;-72
2023/12/04 04:24:47;;;;;;;28.83;15.82;;;1.20;99.90;;;;;;5056405;28;20086;-72
2023/12/04 04:27:13;;;;;;;28.85;14.70;;;1.20;99.90;;;;;;5059852;28;20525;-73
2023/12/04 04:29:39;;;;;;;33.17;15.70;;;1.60;99.90;;;;;;5069106;28;20040;-72
2023/12/04 04:32:05;;;;;;;28.55;13.95;;;1.20;99.90;;;;;;5066634;28;20136;-73
2023/12/04 04:34:30;;;;;;;30.48;15.75;;;1.20;99.90;;;;;;5068899;28;20086;-73
2023/12/04 04:36:56;;;;;;;29.63;14.98;;;1.20;99.90;;;;;;5071057;28;20048;-72
2023/12/04 04:39:21;;;;;;;27.42;14.60;;;1.20;99.90;;;;;;5069619;28;20044;-72
2023/12/04 04:41:47;;;;;;;31.15;14.85;;;1.20;99.90;;;;;;5064463;28;20119;-72
2023/12/04 04:44:13;;;;;;;32.42;16.10;;;1.20;99.90;;;;;;5051368;28;20041;-72
2023/12/04 04:46:38;;;;;;;34.30;16.30;;;1.20;99.90;;;;;;5050815;28;20412;-72
2023/12/04 04:49:07;;;;;;;28.70;14.75;;;1.20;99.90;;;;;;5049677;28;20059;-73
2023/12/04 04:51:34;;;;;;;28.55;14.80;;;1.20;99.90;;;;;;5051975;28;20123;-73
2023/12/04 04:54:00;;;;;;;30.60;15.68;;;2.40;99.90;;;;;;5051438;28;20106;-73
2023/12/04 04:56:26;;;;;;;31.90;15.00;;;1.20;99.90;;;;;;5068754;28;20411;-73
2023/12/04 04:58:52;;;;;;;28.52;15.32;;;1.20;99.90;;;;;;5070530;28;20052;-72
2023/12/04 05:01:17;;;;;;;27.75;14.95;;;1.20;99.90;;;;;;5056844;28;20099;-72
2023/12/04 05:03:43;;;;;;;29.98;15.13;;;1.20;99.90;;;;;;5056870;28;20044;-72
2023/12/04 05:06:09;;;;;;;25.75;14.02;;;1.20;99.90;;;;;;5050546;28;20052;-72
2023/12/04 05:08:34;;;;;;;31.00;14.73;;;1.20;99.90;;;;;;5049128;28;20128;-73
2023/12/04 05:11:00;;;;;;;29.67;14.13;;;1.20;99.90;;;;;;5052992;28;20044;-74
2023/12/04 05:13:26;;;;;;;26.73;13.20;;;1.20;99.90;;;;;;5052239;28;20067;-73
2023/12/04 05:15:51;;;;;;;26.92;13.75;;;1.20;99.90;;;;;;5059449;28;20433;-74
2023/12/04 05:18:17;;;;;;;27.38;13.65;;;1.20;99.90;;;;;;5069889;28;20563;-74
2023/12/04 05:20:42;;;;;;;28.60;15.15;;;1.20;99.90;;;;;;5070318;28;20033;-74
2023/12/04 05:23:08;;;;;;;28.40;15.60;;;1.10;99.90;;;;;;5068050;28;20048;-74
2023/12/04 05:25:34;;;;;;;25.00;14.43;;;1.20;99.90;;;;;;5069950;28;20460;-73
2023/12/04 05:27:59;;;;;;;27.45;14.20;;;1.20;99.90;;;;;;5070219;28;20045;-74
2023/12/04 05:30:25;;;;;;;29.88;15.48;;;1.20;99.90;;;;;;5070075;28;20038;-74
2023/12/04 05:32:50;;;;;;;25.15;14.18;;;1.20;99.90;;;;;;5058563;28;20140;-74
2023/12/04 05:35:17;;;;;;;28.17;14.40;;;1.20;99.90;;;;;;5069542;28;20048;-74
2023/12/04 05:37:42;;;;;;;31.52;16.08;;;1.10;99.90;;;;;;5069948;28;20086;-74
2023/12/04 05:40:09;;;;;;;29.27;15.77;;;1.20;99.90;;;;;;5070000;28;20078;-74
2023/12/04 05:42:34;;;;;;;28.60;14.93;;;1.20;99.90;;;;;;5041005;28;20059;-74
2023/12/04 05:45:00;;;;;;;28.27;14.68;;;1.20;99.90;;;;;;5050768;28;20048;-74
2023/12/04 05:47:26;;;;;;;29.80;14.35;;;1.20;99.90;;;;;;5054295;28;20095;-74
2023/12/04 05:49:52;;;;;;;26.05;13.70;;;1.20;99.90;;;;;;5069548;28;20045;-74
2023/12/04 05:52:17;;;;;;;24.92;12.65;;;2.40;99.90;;;;;;5065335;28;20051;-74
2023/12/04 05:54:43;;;;;;;29.48;14.77;;;1.80;99.90;;;;;;5063385;28;20048;-74
2023/12/04 05:57:09;;;;;;;25.65;13.50;;;1.70;99.90;;;;;;5066057;28;20496;-74
2023/12/04 05:59:34;;;;;;;27.25;13.70;;;1.20;99.90;;;;;;5063486;28;20083;-74
2023/12/04 06:02:00;;;;;;;27.65;15.38;;;1.30;99.90;;;;;;5062379;28;20045;-74
2023/12/04 06:04:26;;;;;;;27.60;14.18;;;1.20;99.90;;;;;;5059544;28;20538;-74
2023/12/04 06:06:52;;;;;;;27.80;14.25;;;1.60;99.90;;;;;;5048871;28;20040;-74
2023/12/04 06:09:18;;;;;;;24.08;13.00;;;1.20;99.90;;;;;;5048569;28;20063;-73
2023/12/04 06:11:44;;;;;;;27.70;14.65;;;1.20;99.90;;;;;;5055903;28;20053;-74
2023/12/04 06:14:10;;;;;;;27.08;13.93;;;1.50;99.90;;;;;;5064067;28;20414;-74
2023/12/04 06:16:36;;;;;;;28.05;14.50;;;1.20;99.90;;;;;;5053079;28;20087;-74
2023/12/04 06:19:04;;;;;;;27.35;14.75;;;1.20;99.90;;;;;;5062439;28;20196;-73
2023/12/04 06:21:30;;;;;;;28.67;15.05;;;1.20;99.90;;;;;;5068241;28;20051;-75
2023/12/04 06:23:57;;;;;;;26.67;13.63;;;1.20;99.90;;;;;;5066154;28;20504;-74
2023/12/04 06:26:23;;;;;;;26.30;13.63;;;1.20;99.90;;;;;;5068001;28;20415;-74
2023/12/04 06:28:49;;;;;;;27.95;14.68;;;1.20;99.90;;;;;;5054332;28;20056;-74
2023/12/04 06:31:15;;;;;;;27.35;13.10;;;1.20;99.90;;;;;;5063481;28;20119;-75
2023/12/04 06:33:41;;;;;;;27.75;14.02;;;1.20;99.90;;;;;;5049630;28;20124;-75
2023/12/04 06:36:07;;;;;;;26.17;13.60;;;1.20;99.90;;;;;;5070912;28;20127;-74
2023/12/04 06:38:38;;;;;;;29.60;14.30;;;1.20;99.90;;;;;;5072192;28;20052;-74
2023/12/04 06:41:04;;;;;;;26.30;13.10;;;1.20;99.90;;;;;;5067050;28;20098;-75
2023/12/04 06:43:30;;;;;;;28.27;14.63;;;1.20;99.90;;;;;;5052882;28;20103;-74
2023/12/04 06:45:58;;;;;;;26.80;13.23;;;1.20;99.90;;;;;;5052531;28;20057;-74
2023/12/04 06:48:24;;;;;;;26.00;13.55;;;1.20;99.90;;;;;;5051706;28;20056;-74
2023/12/04 06:50:50;;;;;;;23.73;13.63;;;1.20;99.90;;;;;;5053458;28;20052;-74
2023/12/04 06:53:16;;;;;;;27.15;14.18;;;1.20;99.90;;;;;;5071680;28;20056;-74
2023/12/04 06:55:41;;;;;;;23.50;12.88;;;1.20;99.90;;;;;;5050174;28;20052;-74
2023/12/04 06:58:07;;;;;;;24.70;12.43;;;1.20;99.90;;;;;;5060658;28;20045;-74
2023/12/04 07:00:32;;;;;;;24.05;13.18;;;1.20;99.90;;;;;;5069527;28;20056;-74
2023/12/04 07:02:58;;;;;;;24.90;13.20;;;1.20;99.90;;;;;;5065740;28;20072;-74
2023/12/04 07:05:24;;;;;;;28.30;13.82;;;1.60;99.90;;;;;;5035309;28;20459;-74
2023/12/04 07:07:49;;;;;;;24.83;13.52;;;1.20;99.90;;;;;;5053739;28;20088;-76
2023/12/04 07:10:15;;;;;;;27.60;12.85;;;1.20;99.90;;;;;;5051337;28;20123;-74
2023/12/04 07:12:42;;;;;;;24.60;12.45;;;1.20;99.90;;;;;;5052985;28;20133;-74
2023/12/04 07:15:08;;;;;;;25.63;12.63;;;1.20;99.90;;;;;;5053388;28;20049;-74
2023/12/04 07:17:35;;;;;;;26.88;12.93;;;1.10;99.90;;;;;;5069861;28;20145;-74
2023/12/04 07:20:01;;;;;;;24.45;12.57;;;1.90;99.90;;;;;;5068337;28;20064;-79
2023/12/04 07:22:26;;;;;;;26.33;13.02;;;1.10;99.90;;;;;;5060249;28;20053;-78
2023/12/04 07:24:52;;;;;;;23.83;12.57;;;1.10;99.90;;;;;;5056908;28;20091;-76
2023/12/04 07:27:18;;;;;;;21.20;12.27;;;1.10;99.90;;;;;;5067134;28;20127;-76
2023/12/04 07:29:43;;;;;;;24.13;12.25;;;1.10;99.90;;;;;;5052227;28;20443;-79
2023/12/04 07:32:09;;;;;;;23.63;11.88;;;1.10;99.90;;;;;;5059552;28;20053;-77
2023/12/04 07:34:35;;;;;;;24.58;12.32;;;1.10;99.90;;;;;;5071145;28;20044;-78
2023/12/04 07:37:00;;;;;;;23.55;12.18;;;1.10;99.90;;;;;;5068249;28;20044;-77
2023/12/04 07:39:26;;;;;;;25.52;12.90;;;1.10;99.90;;;;;;5052391;28;20045;-79
2023/12/04 07:41:52;;;;;;;24.63;12.25;;;1.70;99.90;;;;;;5042756;28;20045;-78
2023/12/04 07:44:18;;;;;;;24.33;12.82;;;1.10;99.90;;;;;;5069472;28;20123;-77
2023/12/04 07:46:44;;;;;;;26.27;12.48;;;1.10;99.90;;;;;;5070347;28;20627;-78
2023/12/04 07:49:09;;;;;;;25.30;11.75;;;1.10;99.90;;;;;;5059812;28;20526;-77
2023/12/04 07:51:35;;;;;;;21.75;12.52;;;1.50;99.90;;;;;;5057876;28;20044;-78
2023/12/04 07:54:01;;;;;;;21.90;11.15;;;1.10;99.90;;;;;;5070545;28;20127;-76
2023/12/04 07:56:26;;;;;;;22.58;11.20;;;1.10;99.90;;;;;;5068657;28;20055;-76
2023/12/04 07:58:52;;;;;;;22.98;11.38;;;1.10;99.90;;;;;;5064862;28;20084;-75
2023/12/04 08:01:18;;;;;;;21.15;10.30;;;1.10;99.90;;;;;;5043705;28;20060;-75
2023/12/04 08:03:43;;;;;;;24.13;12.70;;;1.20;99.90;;;;;;5061135;28;20052;-75
2023/12/04 08:06:09;;;;;;;23.05;11.55;;;1.20;99.90;;;;;;5069561;28;20507;-75
2023/12/04 08:08:35;;;;;;;25.00;11.82;;;1.20;99.90;;;;;;5066766;28;20057;-75
2023/12/04 08:11:00;;;;;;;21.95;11.75;;;1.20;99.90;;;;;;5059114;28;20049;-75
2023/12/04 08:13:26;;;;;;;21.95;11.50;;;1.20;99.90;;;;;;5068373;28;20055;-74
2023/12/04 08:15:51;;;;;;;23.10;12.02;;;1.20;99.90;;;;;;5069236;28;20048;-75
2023/12/04 08:18:17;;;;;;;21.40;11.10;;;1.20;99.90;;;;;;5067641;28;20080;-75
2023/12/04 08:20:43;;;;;;;20.02;9.95;;;1.60;99.90;;;;;;5070029;28;20048;-75
2023/12/04 08:23:09;;;;;;;20.17;10.45;;;1.20;99.90;;;;;;5070578;28;20052;-75
2023/12/04 08:25:37;;;;;;;23.13;10.80;;;1.30;99.90;;;;;;5071591;28;20403;-74
2023/12/04 08:28:03;;;;;;;19.88;10.98;;;1.20;99.90;;;;;;5072935;28;20099;-75
2023/12/04 08:30:29;;;;;;;19.60;10.93;;;1.20;99.90;;;;;;5051102;28;20435;-75
2023/12/04 08:32:54;;;;;;;20.08;9.95;;;1.60;99.90;;;;;;5051528;28;20365;-75
2023/12/04 08:35:20;;;;;;;19.77;10.63;;;1.30;99.90;;;;;;5070922;28;20063;-75
2023/12/04 08:37:46;;;;;;;19.30;9.77;;;1.30;99.90;;;;;;5070699;28;20053;-75
2023/12/04 08:40:11;;;;;;;21.80;10.55;;;1.30;99.90;;;;;;5069670;28;20433;-74
2023/12/04 08:42:38;;;;;;;19.13;10.35;;;1.30;99.90;;;;;;5053759;28;20118;-75
2023/12/04 08:45:05;;;;;;;18.08;9.95;;;1.30;99.90;;;;;;5070554;28;20052;-74
2023/12/04 08:47:31;;;;;;;20.42;9.98;;;1.30;99.90;;;;;;5066123;28;20037;-75
2023/12/04 08:49:57;;;;;;;19.98;10.30;;;1.40;99.90;;;;;;5070584;28;20062;-74
2023/12/04 08:52:23;;;;;;;20.15;10.80;;;1.40;99.90;;;;;;5069550;28;20135;-74
2023/12/04 08:54:48;;;;;;;19.30;9.68;;;1.40;99.90;;;;;;5070237;28;20052;-74
2023/12/04 08:57:14;;;;;;;15.25;8.68;;;1.40;99.90;;;;;;5069296;28;20083;-74
2023/12/04 08:59:40;;;;;;;16.98;9.52;;;1.40;99.90;;;;;;5070075;28;20048;-75
2023/12/04 09:02:06;;;;;;;20.33;10.15;;;1.40;99.90;;;;;;5054745;28;20458;-75
2023/12/04 09:04:32;;;;;;;17.98;9.45;;;1.40;99.90;;;;;;5049931;28;20496;-75
2023/12/04 09:06:58;;;;;;;17.48;9.23;;;1.40;99.90;;;;;;5058940;28;20101;-75
2023/12/04 09:09:23;;;;;;;17.35;9.68;;;1.40;99.90;;;;;;5066321;28;20052;-74
2023/12/04 09:11:49;;;;;;;18.73;9.57;;;1.40;99.90;;;;;;5065339;28;20410;-75
2023/12/04 09:14:15;;;;;;;22.00;9.57;;;1.40;99.90;;;;;;5069844;28;20055;-75
2023/12/04 09:16:41;;;;;;;15.95;8.57;;;1.30;99.90;;;;;;5070042;28;20044;-74
2023/12/04 09:19:07;;;;;;;17.00;9.50;;;1.40;99.90;;;;;;5069341;28;20083;-75
2023/12/04 09:21:33;;;;;;;17.73;9.00;;;1.40;99.90;;;;;;5069523;28;20055;-73
2023/12/04 09:23:59;;;;;;;17.35;9.10;;;1.40;99.90;;;;;;5063164;28;20048;-75
2023/12/04 09:26:24;;;;;;;17.10;8.90;;;1.50;99.90;;;;;;5060260;28;20040;-76
2023/12/04 09:28:50;;;;;;;18.55;9.07;;;1.50;99.90;;;;;;5064136;28;20061;-75
2023/12/04 09:31:15;;;;;;;14.88;8.45;;;1.50;99.90;;;;;;5049558;28;20052;-75
2023/12/04 09:33:41;;;;;;;16.90;8.93;;;1.60;99.90;;;;;;5042019;28;20127;-75
2023/12/04 09:36:08;;;;;;;19.20;9.02;;;1.60;99.90;;;;;;5069222;28;20494;-75
2023/12/04 09:38:34;;;;;;;18.17;9.40;;;1.60;99.90;;;;;;5062948;28;20049;-75
2023/12/04 09:41:02;;;;;;;18.17;8.85;;;1.60;99.90;;;;;;5056340;28;20086;-75
2023/12/04 09:43:31;;;;;;;17.15;8.52;;;1.60;99.90;;;;;;5056786;28;20043;-75
2023/12/04 09:45:58;;;;;;;15.15;8.73;;;1.60;99.90;;;;;;5048891;28;20048;-75
2023/12/04 09:48:26;;;;;;;19.52;9.82;;;2.40;99.90;;;;;;5057962;28;20079;-75
2023/12/04 09:50:53;;;;;;;15.15;8.25;;;1.70;99.90;;;;;;5068478;28;20427;-75
2023/12/04 09:53:19;;;;;;;17.58;9.52;;;1.70;99.90;;;;;;5069290;28;20044;-75
2023/12/04 09:55:49;;;;;;;16.23;7.88;;;1.70;99.90;;;;;;5069244;28;20722;-75
2023/12/04 09:58:15;;;;;;;16.98;8.35;;;1.80;99.90;;;;;;5067929;28;20109;-75
2023/12/04 10:00:42;;;;;;;15.27;7.85;;;1.80;99.90;;;;;;5049964;28;20055;-75
2023/12/04 10:03:08;;;;;;;15.40;8.63;;;1.80;99.90;;;;;;5050538;28;20059;-75
2023/12/04 10:05:34;;;;;;;14.80;8.27;;;2.30;99.90;;;;;;5049212;28;20052;-75
2023/12/04 10:07:59;;;;;;;16.92;8.15;;;1.80;99.90;;;;;;5062954;28;20048;-76
2023/12/04 10:10:25;;;;;;;15.52;8.50;;;2.00;99.90;;;;;;5063315;28;20049;-75
2023/12/04 10:12:51;;;;;;;16.13;8.35;;;1.90;99.90;;;;;;5066393;28;20048;-75
2023/12/04 10:15:17;;;;;;;13.05;7.63;;;2.90;99.90;;;;;;5055376;28;20408;-76
2023/12/04 10:17:43;;;;;;;15.27;7.57;;;1.90;99.90;;;;;;5056426;28;20552;-75
2023/12/04 10:20:17;;;;;;;16.58;8.65;;;2.00;99.90;;;;;;5067667;28;20504;-75
2023/12/04 10:22:52;;;;;;;14.77;7.78;;;2.00;99.90;;;;;;5058036;28;20049;-75
2023/12/04 10:25:18;;;;;;;14.43;8.00;;;2.00;99.90;;;;;;5052881;28;20045;-75
2023/12/04 10:27:45;;;;;;;13.80;7.22;;;2.00;99.90;;;;;;5068615;28;20505;-75
2023/12/04 10:30:30;;;;;;;15.15;8.02;;;2.00;99.90;;;;;;5072310;28;20062;-75
2023/12/04 10:33:00;;;;;;;15.40;7.80;;;2.00;99.90;;;;;;5073152;28;20055;-75
2023/12/04 10:35:28;;;;;;;12.82;7.22;;;2.00;99.90;;;;;;5057929;28;20056;-75
2023/12/04 10:37:54;;;;;;;14.82;7.57;;;2.00;99.90;;;;;;5065245;28;20053;-75
2023/12/04 10:40:24;;;;;;;14.38;7.70;;;2.00;99.90;;;;;;5065413;28;20040;-75
2023/12/04 10:42:50;;;;;;;14.27;8.05;;;2.00;99.90;;;;;;5072843;28;20616;-75
2023/12/04 10:45:16;;;;;;;11.88;6.90;;;2.00;99.90;;;;;;5072520;28;20080;-75
2023/12/04 10:47:44;;;;;;;18.00;7.90;;;2.00;99.90;;;;;;5073000;28;20139;-75
2023/12/04 10:50:12;;;;;;;14.93;7.65;;;2.00;99.90;;;;;;5072564;28;20048;-75
2023/12/04 10:52:40;;;;;;;15.45;8.18;;;2.00;99.90;;;;;;5067184;28;20712;-75
2023/12/04 10:55:08;;;;;;;15.32;7.53;;;2.00;99.90;;;;;;5060601;28;20502;-75
2023/12/04 10:57:38;;;;;;;19.35;7.13;;;2.00;99.90;;;;;;5061429;28;20087;-75
2023/12/04 11:00:05;;;;;;;12.85;7.15;;;2.30;99.90;;;;;;5066079;28;20052;-76
2023/12/04 11:02:34;;;;;;;13.20;7.38;;;2.00;99.90;;;;;;5063553;28;20044;-76
2023/12/04 11:05:14;;;;;;;17.67;8.75;;;2.00;99.90;;;;;;5061151;28;20056;-76
2023/12/04 11:07:56;;;;;;;13.20;7.40;;;2.00;99.90;;;;;;5040364;28;20095;-76
2023/12/04 11:10:26;;;;;;;13.15;7.32;;;2.10;99.90;;;;;;5056268;28;20047;-76
2023/12/04 11:13:03;;;;;;;13.10;7.28;;;2.10;99.90;;;;;;5059359;28;20072;-76
2023/12/04 11:15:35;;;;;;;14.40;7.28;;;2.10;99.90;;;;;;5059537;28;20587;-75
2023/12/04 11:18:01;;;;;;;13.15;6.63;;;2.20;99.90;;;;;;5064279;28;20111;-76
2023/12/04 11:20:35;;;;;;;12.38;6.90;;;2.20;99.90;;;;;;5062545;28;20045;-76
2023/12/04 11:23:03;;;;;;;15.82;7.22;;;2.20;99.90;;;;;;5047475;28;20114;-76
2023/12/04 11:25:34;;;;;;;13.38;7.30;;;2.30;99.90;;;;;;5066752;28;20106;-76
2023/12/04 11:28:01;;;;;;;13.60;6.80;;;2.30;99.90;;;;;;5062700;28;20052;-75
2023/12/04 11:30:29;;;;;;;11.20;6.25;;;2.30;99.90;;;;;;5066678;28;20040;-75
2023/12/04 11:32:57;;;;;;;11.75;6.68;;;2.40;99.90;;;;;;5058628;28;20459;-76
2023/12/04 11:35:26;;;;;;;12.95;7.35;;;2.40;99.90;;;;;;5063903;28;20082;-75
2023/12/04 11:37:52;;;;;;;12.20;7.13;;;2.50;99.90;;;;;;5056528;28;20571;-77
2023/12/04 11:40:18;;;;;;;12.13;6.50;;;2.50;99.90;;;;;;5059882;28;20051;-75
2023/12/04 11:42:44;;;;;;;13.43;6.93;;;2.50;99.90;;;;;;5064218;28;20392;-75
2023/12/04 11:45:17;;;;;;;13.48;6.68;;;2.50;99.90;;;;;;5060537;28;20107;-76
2023/12/04 11:47:51;;;;;;;12.00;7.15;;;2.50;99.90;;;;;;5064292;28;20156;-75
2023/12/04 11:50:20;;;;;;;11.03;6.17;;;2.50;99.90;;;;;;5065957;28;20049;-75
2023/12/04 11:52:47;;;;;;;12.63;6.93;;;2.50;99.90;;;;;;5058295;28;20048;-75
2023/12/04 11:55:16;;;;;;;12.90;7.18;;;2.70;99.90;;;;;;5057508;28;20369;-75
2023/12/04 11:57:42;;;;;;;13.50;6.60;;;2.50;99.90;;;;;;5053804;28;20083;-76
2023/12/04 12:00:14;;;;;;;12.45;7.05;;;2.50;99.90;;;;;;5066140;28;20068;-75
2023/12/04 12:02:41;;;;;;;11.18;6.18;;;2.50;99.90;;;;;;5071978;28;20060;-75
2023/12/04 12:05:07;;;;;;;12.45;7.47;;;2.50;99.90;;;;;;5052318;28;20083;-75
2023/12/04 12:07:34;;;;;;;12.73;6.32;;;2.60;99.90;;;;;;5064646;28;20659;-75
2023/12/04 12:09:59;;;;;;;13.80;6.60;;;2.60;99.90;;;;;;5052893;28;20091;-75
2023/12/04 12:12:27;;;;;;;11.80;6.30;;;2.50;99.90;;;;;;5052015;28;20072;-75
2023/12/04 12:14:53;;;;;;;12.88;6.78;;;3.40;99.90;;;;;;5050903;28;20559;-75
2023/12/04 12:17:19;;;;;;;13.52;7.30;;;2.60;99.90;;;;;;5055797;28;20099;-76
2023/12/04 12:19:45;;;;;;;12.95;7.32;;;2.60;99.90;;;;;;5068304;28;20053;-75
2023/12/04 12:22:11;;;;;;;12.45;6.93;;;2.60;99.90;;;;;;5057858;28;20048;-75
2023/12/04 12:24:37;;;;;;;11.70;6.43;;;2.60;99.90;;;;;;5069210;28;20538;-75
2023/12/04 12:27:04;;;;;;;12.50;6.88;;;2.60;99.90;;;;;;5054040;28;20080;-75
2023/12/04 12:29:29;;;;;;;14.38;7.72;;;2.60;99.90;;;;;;5056242;28;20056;-75
2023/12/04 12:31:57;;;;;;;11.90;6.90;;;2.60;99.90;;;;;;5071046;28;20043;-75
2023/12/04 12:34:22;;;;;;;13.70;6.90;;;3.60;99.90;;;;;;5047831;28;20174;-75
2023/12/04 12:36:48;;;;;;;11.73;6.80;;;2.70;99.90;;;;;;5051915;28;20041;-75